createdAt,value
2023-05-15T00:00:37.597Z,10.92
2023-05-15T00:03:04.684Z,10.85
2023-05-15T00:05:31.497Z,10.90
2023-05-15T00:07:58.307Z,10.75
2023-05-15T00:10:24.960Z,10.65
2023-05-15T00:12:51.555Z,10.61
2023-05-15T00:15:18.200Z,10.54
2023-05-15T00:17:44.864Z,10.44
2023-05-15T00:20:12.418Z,10.38
2023-05-15T00:22:39.057Z,10.35
2023-05-15T00:25:06.204Z,10.31
2023-05-15T00:27:33.438Z,10.29
2023-05-15T00:30:00.021Z,10.25
2023-05-15T00:32:26.720Z,10.26
2023-05-15T00:34:53.342Z,10.24
2023-05-15T00:37:19.994Z,10.19
2023-05-15T00:39:46.745Z,10.15
2023-05-15T00:42:17.202Z,10.13
2023-05-15T00:44:45.506Z,10.19
2023-05-15T00:47:12.959Z,10.18
2023-05-15T00:49:40.028Z,10.21
2023-05-15T00:52:08.759Z,10.18
2023-05-15T00:54:35.628Z,10.17
2023-05-15T00:57:06.331Z,10.20
2023-05-15T00:59:33.476Z,10.20
2023-05-15T01:02:00.634Z,10.18
2023-05-15T01:04:27.470Z,10.20
2023-05-15T01:06:54.671Z,10.18
2023-05-15T01:09:24.663Z,10.11
2023-05-15T01:11:54.759Z,10.09
2023-05-15T01:14:21.506Z,10.07
2023-05-15T01:16:48.270Z,10.04
2023-05-15T01:19:15.226Z,9.98
2023-05-15T01:21:51.086Z,9.97
2023-05-15T01:24:31.164Z,10.01
2023-05-15T01:27:17.133Z,10.04
2023-05-15T01:29:55.361Z,10.13
2023-05-15T01:32:40.382Z,10.20
2023-05-15T01:35:33.535Z,10.21
2023-05-15T01:38:23.149Z,10.27
2023-05-15T01:40:59.761Z,10.23
2023-05-15T01:43:29.468Z,10.17
2023-05-15T01:45:57.298Z,10.23
2023-05-15T01:48:27.188Z,10.34
2023-05-15T01:51:01.791Z,10.38
2023-05-15T01:53:32.069Z,10.47
2023-05-15T01:56:00.177Z,10.58
2023-05-15T01:58:28.226Z,10.64
2023-05-15T02:00:56.173Z,10.68
2023-05-15T02:03:23.839Z,10.76
2023-05-15T02:05:51.985Z,10.86
2023-05-15T02:08:20.465Z,10.88
2023-05-15T02:10:48.379Z,10.82
2023-05-15T02:13:16.896Z,10.76
2023-05-15T02:15:43.496Z,10.64
2023-05-15T02:18:10.199Z,10.69
2023-05-15T02:20:36.829Z,10.76
2023-05-15T02:23:03.503Z,10.75
2023-05-15T02:25:43.870Z,10.76
2023-05-15T02:28:22.498Z,10.79
2023-05-15T02:31:05.652Z,10.81
2023-05-15T02:33:49.625Z,10.80
2023-05-15T02:36:23.432Z,10.74
2023-05-15T02:38:54.137Z,10.70
2023-05-15T02:41:21.996Z,10.59
2023-05-15T02:43:51.688Z,10.59
2023-05-15T02:46:21.239Z,10.64
2023-05-15T02:48:48.857Z,10.66
2023-05-15T02:51:15.908Z,10.68
2023-05-15T02:53:43.420Z,10.70
2023-05-15T02:56:10.316Z,10.75
2023-05-15T02:58:38.044Z,10.71
2023-05-15T03:01:04.886Z,10.70
2023-05-15T03:03:31.712Z,10.67
2023-05-15T03:06:00.748Z,10.69
2023-05-15T03:08:27.411Z,10.71
2023-05-15T03:10:54.104Z,10.67
2023-05-15T03:13:20.813Z,10.65
2023-05-15T03:15:47.560Z,10.65
2023-05-15T03:18:15.748Z,10.63
2023-05-15T03:20:43.810Z,10.67
2023-05-15T03:23:10.919Z,10.65
2023-05-15T03:25:37.543Z,10.59
2023-05-15T03:28:04.118Z,10.62
2023-05-15T03:30:30.695Z,10.69
2023-05-15T03:32:57.971Z,10.76
2023-05-15T03:35:26.240Z,10.73
2023-05-15T03:37:53.003Z,10.68
2023-05-15T03:40:19.639Z,10.64
2023-05-15T03:42:46.451Z,10.59
2023-05-15T03:45:13.133Z,10.52
2023-05-15T03:47:39.834Z,10.47
2023-05-15T03:50:06.889Z,10.47
2023-05-15T03:52:33.638Z,10.51
2023-05-15T03:55:01.297Z,10.55
2023-05-15T03:57:28.030Z,10.62
2023-05-15T03:59:54.642Z,10.63
2023-05-15T04:02:21.280Z,10.55
2023-05-15T04:04:47.940Z,10.64
2023-05-15T04:07:14.590Z,10.68
2023-05-15T04:09:41.165Z,10.71
2023-05-15T04:12:07.923Z,10.80
2023-05-15T04:14:34.656Z,10.81
2023-05-15T04:17:01.387Z,10.78
2023-05-15T04:19:28.424Z,10.72
2023-05-15T04:21:55.191Z,10.72
2023-05-15T04:24:21.766Z,10.62
2023-05-15T04:26:48.501Z,10.61
2023-05-15T04:29:15.228Z,10.66
2023-05-15T04:31:41.889Z,10.75
2023-05-15T04:34:08.520Z,10.82
2023-05-15T04:36:35.213Z,10.80
2023-05-15T04:39:01.829Z,10.79
2023-05-15T04:41:28.483Z,10.71
2023-05-15T04:43:55.058Z,10.71
2023-05-15T04:46:21.783Z,10.68
2023-05-15T04:48:48.425Z,10.68
2023-05-15T04:51:15.035Z,10.72
2023-05-15T04:53:41.611Z,10.76
2023-05-15T04:56:08.225Z,10.76
2023-05-15T04:58:34.801Z,10.76
2023-05-15T05:01:03.738Z,10.79
2023-05-15T05:03:30.943Z,10.82
2023-05-15T05:05:57.559Z,10.80
2023-05-15T05:08:24.566Z,10.82
2023-05-15T05:10:56.510Z,10.84
2023-05-15T05:13:23.157Z,10.84
2023-05-15T05:15:49.869Z,10.81
2023-05-15T05:18:16.666Z,10.80
2023-05-15T05:20:43.348Z,10.81
2023-05-15T05:23:10.056Z,10.82
2023-05-15T05:25:36.763Z,10.84
2023-05-15T05:28:03.525Z,10.83
2023-05-15T05:30:30.153Z,10.92
2023-05-15T05:32:56.855Z,10.94
2023-05-15T05:35:23.724Z,10.98
2023-05-15T05:37:50.569Z,10.92
2023-05-15T05:40:18.339Z,10.98
2023-05-15T05:42:44.898Z,11.03
2023-05-15T05:45:11.746Z,11.06
2023-05-15T05:47:38.437Z,11.17
2023-05-15T05:50:06.587Z,11.27
2023-05-15T05:52:33.214Z,11.37
2023-05-15T05:54:59.833Z,11.52
2023-05-15T05:57:26.793Z,11.59
2023-05-15T05:59:53.394Z,11.64
2023-05-15T06:02:20.075Z,11.62
2023-05-15T06:04:46.832Z,11.70
2023-05-15T06:07:13.617Z,11.74
2023-05-15T06:09:40.281Z,11.76
2023-05-15T06:12:08.389Z,11.78
2023-05-15T06:14:35.971Z,11.89
2023-05-15T06:17:03.115Z,11.90
2023-05-15T06:19:30.328Z,11.94
2023-05-15T06:21:57.137Z,11.97
2023-05-15T06:24:23.729Z,12.08
2023-05-15T06:26:50.596Z,12.21
2023-05-15T06:29:19.229Z,12.21
2023-05-15T06:31:45.845Z,12.24
2023-05-15T06:34:12.504Z,12.25
2023-05-15T06:36:39.128Z,12.27
2023-05-15T06:39:05.997Z,12.32
2023-05-15T06:41:33.008Z,12.31
2023-05-15T06:43:59.810Z,12.22
2023-05-15T06:46:26.451Z,12.28
2023-05-15T06:48:53.130Z,12.36
2023-05-15T06:51:19.726Z,12.37
2023-05-15T06:53:46.598Z,12.48
2023-05-15T06:56:14.082Z,12.61
2023-05-15T06:58:40.732Z,12.72
2023-05-15T07:01:09.483Z,12.87
2023-05-15T07:03:36.313Z,12.96
2023-05-15T07:06:04.264Z,13.08
2023-05-15T07:08:30.994Z,13.27
2023-05-15T07:10:57.577Z,13.44
2023-05-15T07:13:24.215Z,13.53
2023-05-15T07:15:50.909Z,13.59
2023-05-15T07:18:18.184Z,13.60
2023-05-15T07:20:45.324Z,13.74
2023-05-15T07:23:11.969Z,13.82
2023-05-15T07:25:40.041Z,13.90
2023-05-15T07:28:06.691Z,13.94
2023-05-15T07:30:33.263Z,14.10
2023-05-15T07:33:00.281Z,14.18
2023-05-15T07:35:27.127Z,14.29
2023-05-15T07:37:54.109Z,14.43
2023-05-15T07:40:20.874Z,14.57
2023-05-15T07:42:47.626Z,14.68
2023-05-15T07:45:14.478Z,14.77
2023-05-15T07:47:49.050Z,14.83
2023-05-15T07:50:16.500Z,14.90
2023-05-15T07:52:43.478Z,14.95
2023-05-15T07:55:10.866Z,14.80
2023-05-15T07:57:37.486Z,14.62
2023-05-15T08:00:10.181Z,14.48
2023-05-15T08:02:40.269Z,14.46
2023-05-15T08:05:07.274Z,14.42
2023-05-15T08:07:34.954Z,14.49
2023-05-15T08:10:01.707Z,14.49
2023-05-15T08:12:28.445Z,14.48
2023-05-15T08:14:55.622Z,14.57
2023-05-15T08:17:23.158Z,14.59
2023-05-15T08:19:49.947Z,14.71
2023-05-15T08:22:16.978Z,14.71
2023-05-15T08:24:45.007Z,14.61
2023-05-15T08:27:11.638Z,14.60
2023-05-15T08:29:39.743Z,14.69
2023-05-15T08:32:07.757Z,14.60
2023-05-15T08:34:34.463Z,14.56
2023-05-15T08:37:01.233Z,14.50
2023-05-15T08:39:28.000Z,14.44
2023-05-15T08:42:03.360Z,14.39
2023-05-15T08:44:30.940Z,14.33
2023-05-15T08:46:58.353Z,14.32
2023-05-15T08:49:31.098Z,14.34
2023-05-15T08:51:57.839Z,14.40
2023-05-15T08:54:25.313Z,14.46
2023-05-15T08:56:52.698Z,14.44
2023-05-15T08:59:19.570Z,14.42
2023-05-15T09:01:46.255Z,14.47
2023-05-15T09:04:13.251Z,14.50
2023-05-15T09:06:41.541Z,14.39
2023-05-15T09:09:09.507Z,14.45
2023-05-15T09:11:37.928Z,14.54
2023-05-15T09:14:04.716Z,14.66
2023-05-15T09:16:31.412Z,14.69
2023-05-15T09:19:00.355Z,14.94
2023-05-15T09:21:29.687Z,15.08
2023-05-15T09:24:19.625Z,15.21
2023-05-15T09:26:47.990Z,15.47
2023-05-15T09:29:18.902Z,15.60
2023-05-15T09:31:49.775Z,15.92
2023-05-15T09:34:16.443Z,16.26
2023-05-15T09:36:46.413Z,16.59
2023-05-15T09:39:13.229Z,17.37
2023-05-15T09:41:44.611Z,17.99
2023-05-15T09:44:25.694Z,18.52
2023-05-15T09:46:52.593Z,18.34
2023-05-15T09:49:19.939Z,18.32
2023-05-15T09:51:48.741Z,18.49
2023-05-15T09:54:16.943Z,18.24
2023-05-15T09:56:45.333Z,18.06
2023-05-15T09:59:16.551Z,17.83
2023-05-15T10:01:47.083Z,17.60
2023-05-15T10:04:13.881Z,17.54
2023-05-15T10:06:46.533Z,17.59
2023-05-15T10:09:17.138Z,17.71
2023-05-15T10:11:44.935Z,18.05
2023-05-15T10:14:14.016Z,18.41
2023-05-15T10:16:45.186Z,18.72
2023-05-15T10:19:13.574Z,18.79
2023-05-15T10:21:42.206Z,18.86
2023-05-15T10:24:10.773Z,19.04
2023-05-15T10:26:41.105Z,19.35
2023-05-15T10:29:13.033Z,19.91
2023-05-15T10:31:40.759Z,20.39
2023-05-15T10:34:09.295Z,20.37
2023-05-15T10:36:38.002Z,20.26
2023-05-15T10:39:07.376Z,20.28
2023-05-15T10:41:36.787Z,20.37
2023-05-15T10:44:03.546Z,20.87
2023-05-15T10:46:34.128Z,21.17
2023-05-15T10:49:01.676Z,21.50
2023-05-15T10:51:31.612Z,21.56
2023-05-15T10:54:01.007Z,21.42
2023-05-15T10:56:31.149Z,20.92
2023-05-15T10:58:58.169Z,21.17
2023-05-15T11:01:24.833Z,20.96
2023-05-15T11:03:53.115Z,21.14
2023-05-15T11:06:31.144Z,22.21
2023-05-15T11:09:33.757Z,23.24
2023-05-15T11:12:02.848Z,23.81
2023-05-15T11:14:31.569Z,24.64
2023-05-15T11:16:59.801Z,25.05
2023-05-15T11:19:29.469Z,24.64
2023-05-15T11:22:15.329Z,23.58
2023-05-15T11:25:12.408Z,22.82
2023-05-15T11:27:44.121Z,23.02
2023-05-15T11:30:22.221Z,23.51
2023-05-15T11:32:49.360Z,23.18
2023-05-15T11:35:21.348Z,23.06
2023-05-15T11:37:54.227Z,22.75
2023-05-15T11:40:29.597Z,22.05
2023-05-15T11:43:06.846Z,21.32
2023-05-15T11:45:38.063Z,20.50
2023-05-15T11:48:07.129Z,19.84
2023-05-15T11:50:35.504Z,19.18
2023-05-15T11:53:04.532Z,18.59
2023-05-15T11:55:35.811Z,18.26
2023-05-15T11:58:04.166Z,17.81
2023-05-15T12:00:31.346Z,17.61
2023-05-15T12:02:58.040Z,17.46
2023-05-15T12:05:24.849Z,17.20
2023-05-15T12:07:52.349Z,16.91
2023-05-15T12:10:19.103Z,16.82
2023-05-15T12:12:46.420Z,16.63
2023-05-15T12:15:15.125Z,16.60
2023-05-15T12:17:43.141Z,16.53
2023-05-15T12:20:12.380Z,16.48
2023-05-15T12:22:39.872Z,16.48
2023-05-15T12:25:07.914Z,16.40
2023-05-15T12:27:36.321Z,16.50
2023-05-15T12:30:04.293Z,16.57
2023-05-15T12:32:33.575Z,16.60
2023-05-15T12:35:01.443Z,16.61
2023-05-15T12:37:28.269Z,16.66
2023-05-15T12:40:01.361Z,16.89
2023-05-15T12:42:28.045Z,17.15
2023-05-15T12:44:56.073Z,17.48
2023-05-15T12:47:27.424Z,17.99
2023-05-15T12:49:57.310Z,18.67
2023-05-15T12:52:27.960Z,19.46
2023-05-15T12:54:54.545Z,19.67
2023-05-15T12:57:21.463Z,19.36
2023-05-15T12:59:48.486Z,19.00
2023-05-15T13:02:17.068Z,18.65
2023-05-15T13:04:46.781Z,18.30
2023-05-15T13:07:17.320Z,18.07
2023-05-15T13:09:44.894Z,17.78
2023-05-15T13:12:12.187Z,17.54
2023-05-15T13:14:38.803Z,17.36
2023-05-15T13:17:05.870Z,17.24
2023-05-15T13:19:32.466Z,17.19
2023-05-15T13:21:59.114Z,17.22
2023-05-15T13:24:26.044Z,17.18
2023-05-15T13:26:52.959Z,17.26
2023-05-15T13:29:20.215Z,17.47
2023-05-15T13:31:47.132Z,17.79
2023-05-15T13:34:13.864Z,17.90
2023-05-15T13:36:40.474Z,17.84
2023-05-15T13:39:07.152Z,17.79
2023-05-15T13:41:33.821Z,17.89
2023-05-15T13:44:00.454Z,17.97
2023-05-15T13:46:27.355Z,18.07
2023-05-15T13:48:53.991Z,18.48
2023-05-15T13:51:20.619Z,18.97
2023-05-15T13:53:47.237Z,19.11
2023-05-15T13:56:14.279Z,18.83
2023-05-15T13:58:41.419Z,18.51
2023-05-15T14:01:08.101Z,18.25
2023-05-15T14:03:34.976Z,18.08
2023-05-15T14:06:01.665Z,18.05
2023-05-15T14:08:28.198Z,18.04
2023-05-15T14:10:57.275Z,18.18
2023-05-15T14:13:24.343Z,18.35
2023-05-15T14:15:51.132Z,18.31
2023-05-15T14:18:17.840Z,18.12
2023-05-15T14:20:44.606Z,18.02
2023-05-15T14:23:11.149Z,18.01
2023-05-15T14:25:37.793Z,17.99
2023-05-15T14:28:04.450Z,17.95
2023-05-15T14:30:31.064Z,17.89
2023-05-15T14:32:57.773Z,17.60
2023-05-15T14:35:24.680Z,17.42
2023-05-15T14:37:51.366Z,17.40
2023-05-15T14:40:18.171Z,17.43
2023-05-15T14:42:44.726Z,17.47
2023-05-15T14:45:11.521Z,17.67
2023-05-15T14:47:38.277Z,17.92
2023-05-15T14:50:05.233Z,17.94
2023-05-15T14:52:31.829Z,17.97
2023-05-15T14:55:08.397Z,17.92
2023-05-15T14:57:36.829Z,17.89
2023-05-15T15:00:06.152Z,17.87
2023-05-15T15:02:32.974Z,17.87
2023-05-15T15:04:59.734Z,17.84
2023-05-15T15:07:29.686Z,17.82
2023-05-15T15:09:56.321Z,17.86
2023-05-15T15:12:23.045Z,17.90
2023-05-15T15:14:49.653Z,17.95
2023-05-15T15:17:16.254Z,17.89
2023-05-15T15:19:42.844Z,17.78
2023-05-15T15:22:09.394Z,17.75
2023-05-15T15:24:35.994Z,17.74
2023-05-15T15:27:02.610Z,17.73
2023-05-15T15:29:29.196Z,17.71
2023-05-15T15:31:55.927Z,17.73
2023-05-15T15:34:22.545Z,17.67
2023-05-15T15:36:49.167Z,17.58
2023-05-15T15:39:16.351Z,17.51
2023-05-15T15:41:42.918Z,17.41
2023-05-15T15:44:09.547Z,17.22
2023-05-15T15:46:36.216Z,17.09
2023-05-15T15:49:04.463Z,16.90
2023-05-15T15:51:32.594Z,16.75
2023-05-15T15:53:59.156Z,16.52
2023-05-15T15:56:25.983Z,16.36
2023-05-15T15:58:52.578Z,16.03
2023-05-15T16:01:19.286Z,15.77
2023-05-15T16:03:46.079Z,15.55
2023-05-15T16:06:12.911Z,15.42
2023-05-15T16:08:39.506Z,15.24
2023-05-15T16:11:06.270Z,14.88
2023-05-15T16:13:32.958Z,14.46
2023-05-15T16:15:59.564Z,14.34
2023-05-15T16:18:26.140Z,14.29
2023-05-15T16:20:52.905Z,14.30
2023-05-15T16:23:21.167Z,14.31
2023-05-15T16:25:48.682Z,14.34
2023-05-15T16:28:15.379Z,14.28
2023-05-15T16:30:48.797Z,14.22
2023-05-15T16:33:17.887Z,14.26
2023-05-15T16:35:45.519Z,14.32
2023-05-15T16:38:12.283Z,14.39
2023-05-15T16:40:39.100Z,14.49
2023-05-15T16:43:07.009Z,14.54
2023-05-15T16:45:33.593Z,14.61
2023-05-15T16:48:00.314Z,14.66
2023-05-15T16:50:27.276Z,14.69
2023-05-15T16:52:53.979Z,14.72
2023-05-15T16:55:20.664Z,14.74
2023-05-15T16:57:47.552Z,14.71
2023-05-15T17:00:15.390Z,14.66
2023-05-15T17:02:42.488Z,14.63
2023-05-15T17:05:10.839Z,14.59
2023-05-15T17:07:38.387Z,14.57
2023-05-15T17:10:08.870Z,14.59
2023-05-15T17:12:35.957Z,14.61
2023-05-15T17:15:03.660Z,14.61
2023-05-15T17:17:31.328Z,14.66
2023-05-15T17:19:58.933Z,14.65
2023-05-15T17:22:25.977Z,14.64
2023-05-15T17:24:52.798Z,14.66
2023-05-15T17:27:20.057Z,14.66
2023-05-15T17:29:47.324Z,14.65
2023-05-15T17:32:14.254Z,14.65
2023-05-15T17:34:41.197Z,14.67
2023-05-15T17:37:08.936Z,14.69
2023-05-15T17:39:36.545Z,14.66
2023-05-15T17:42:04.926Z,14.59
2023-05-15T17:44:31.659Z,14.56
2023-05-15T17:46:58.756Z,14.52
2023-05-15T17:49:26.158Z,14.47
2023-05-15T17:51:53.504Z,14.40
2023-05-15T17:54:20.487Z,14.39
2023-05-15T17:56:48.387Z,14.41
2023-05-15T17:59:15.605Z,14.43
2023-05-15T18:01:42.369Z,14.36
2023-05-15T18:04:09.310Z,14.35
2023-05-15T18:06:36.142Z,14.27
2023-05-15T18:09:03.291Z,14.22
2023-05-15T18:11:30.201Z,14.15
2023-05-15T18:13:56.984Z,14.11
2023-05-15T18:16:23.854Z,14.05
2023-05-15T18:18:52.195Z,14.07
2023-05-15T18:21:19.234Z,14.01
2023-05-15T18:23:46.043Z,14.03
2023-05-15T18:26:12.675Z,14.03
2023-05-15T18:28:39.355Z,14.01
2023-05-15T18:31:06.098Z,14.01
2023-05-15T18:33:33.902Z,14.00
2023-05-15T18:36:00.561Z,13.96
2023-05-15T18:38:27.214Z,13.87
2023-05-15T18:40:53.908Z,13.87
2023-05-15T18:43:20.550Z,13.85
2023-05-15T18:45:48.304Z,13.88
2023-05-15T18:48:15.039Z,13.85
2023-05-15T18:50:41.862Z,13.79
2023-05-15T18:53:08.496Z,13.68
2023-05-15T18:55:35.124Z,13.54
2023-05-15T18:58:01.711Z,13.39
2023-05-15T19:00:37.787Z,13.21
2023-05-15T19:03:06.461Z,13.08
2023-05-15T19:05:34.006Z,12.95
2023-05-15T19:08:01.166Z,12.89
2023-05-15T19:10:29.761Z,12.88
2023-05-15T19:12:59.560Z,12.91
2023-05-15T19:15:26.660Z,12.94
2023-05-15T19:17:53.430Z,12.97
2023-05-15T19:20:20.494Z,12.97
2023-05-15T19:22:50.500Z,12.96
2023-05-15T19:25:17.399Z,12.99
2023-05-15T19:27:44.167Z,13.01
2023-05-15T19:30:11.112Z,13.05
2023-05-15T19:32:39.443Z,13.05
2023-05-15T19:35:06.186Z,13.09
2023-05-15T19:37:32.804Z,13.11
2023-05-15T19:39:59.395Z,13.14
2023-05-15T19:42:26.496Z,13.10
2023-05-15T19:44:53.127Z,13.07
2023-05-15T19:47:20.118Z,13.03
2023-05-15T19:49:46.726Z,12.96
2023-05-15T19:52:13.329Z,12.87
2023-05-15T19:54:39.916Z,12.79
2023-05-15T19:57:07.032Z,12.64
2023-05-15T19:59:33.594Z,12.56
2023-05-15T20:02:01.534Z,12.49
2023-05-15T20:04:28.314Z,12.44
2023-05-15T20:06:54.929Z,12.43
2023-05-15T20:09:21.546Z,12.39
2023-05-15T20:11:48.110Z,12.38
2023-05-15T20:14:15.267Z,12.40
2023-05-15T20:16:41.997Z,12.44
2023-05-15T20:19:10.896Z,12.45
2023-05-15T20:21:38.900Z,12.47
2023-05-15T20:24:06.050Z,12.48
2023-05-15T20:26:32.782Z,12.48
2023-05-15T20:28:59.491Z,12.42
2023-05-15T20:31:26.119Z,12.36
2023-05-15T20:33:52.765Z,12.30
2023-05-15T20:36:20.176Z,12.26
2023-05-15T20:38:48.187Z,12.22
2023-05-15T20:41:16.407Z,12.21
2023-05-15T20:43:43.026Z,12.17
2023-05-15T20:46:09.747Z,12.21
2023-05-15T20:48:36.447Z,12.23
2023-05-15T20:51:03.242Z,12.29
2023-05-15T20:53:29.970Z,12.36
2023-05-15T20:55:56.746Z,12.38
2023-05-15T20:58:23.359Z,12.36
2023-05-15T21:00:49.990Z,12.35
2023-05-15T21:03:16.738Z,12.29
2023-05-15T21:05:43.434Z,12.19
2023-05-15T21:08:10.045Z,12.14
2023-05-15T21:10:36.643Z,12.10
2023-05-15T21:13:03.547Z,12.07
2023-05-15T21:15:30.153Z,12.02
2023-05-15T21:17:56.884Z,11.99
2023-05-15T21:20:23.604Z,11.91
2023-05-15T21:22:51.229Z,11.80
2023-05-15T21:25:19.148Z,11.73
2023-05-15T21:27:45.859Z,11.67
2023-05-15T21:30:13.113Z,11.64
2023-05-15T21:32:39.766Z,11.72
2023-05-15T21:35:06.549Z,11.80
2023-05-15T21:37:33.192Z,11.90
2023-05-15T21:39:59.817Z,12.06
2023-05-15T21:42:26.505Z,12.15
2023-05-15T21:44:53.148Z,12.21
2023-05-15T21:47:19.784Z,12.27
2023-05-15T21:49:46.458Z,12.31
2023-05-15T21:52:13.037Z,12.32
2023-05-15T21:54:39.720Z,12.33
2023-05-15T21:57:06.765Z,12.36
2023-05-15T21:59:33.323Z,12.42
2023-05-15T22:02:00.022Z,12.43
2023-05-15T22:04:28.624Z,12.42
2023-05-15T22:06:55.426Z,12.40
2023-05-15T22:09:22.041Z,12.37
2023-05-15T22:11:48.609Z,12.32
2023-05-15T22:14:15.278Z,12.33
2023-05-15T22:16:42.074Z,12.29
2023-05-15T22:19:15.878Z,12.28
2023-05-15T22:21:48.528Z,12.26
2023-05-15T22:24:15.214Z,12.23
2023-05-15T22:26:42.151Z,12.21
2023-05-15T22:29:08.920Z,12.19
2023-05-15T22:31:35.541Z,12.15
2023-05-15T22:34:02.238Z,12.12
2023-05-15T22:36:28.878Z,12.08
2023-05-15T22:38:55.585Z,12.06
2023-05-15T22:41:22.208Z,12.07
2023-05-15T22:43:48.782Z,12.08
2023-05-15T22:46:16.248Z,12.06
2023-05-15T22:48:42.950Z,12.04
2023-05-15T22:51:10.314Z,11.99
2023-05-15T22:53:37.048Z,11.95
2023-05-15T22:56:03.694Z,11.93
2023-05-15T22:58:30.300Z,11.87
2023-05-15T23:00:56.892Z,11.82
2023-05-15T23:03:23.681Z,11.77
2023-05-15T23:05:53.055Z,11.72
2023-05-15T23:08:19.738Z,11.68
2023-05-15T23:10:46.522Z,11.68
2023-05-15T23:13:13.444Z,11.66
2023-05-15T23:15:41.088Z,11.71
2023-05-15T23:18:08.683Z,11.68
2023-05-15T23:20:35.430Z,11.67
2023-05-15T23:23:02.019Z,11.65
2023-05-15T23:25:28.625Z,11.68
2023-05-15T23:27:55.476Z,11.65
2023-05-15T23:30:22.216Z,11.65
2023-05-15T23:32:48.899Z,11.63
2023-05-15T23:35:15.600Z,11.64
2023-05-15T23:37:42.193Z,11.62
2023-05-15T23:40:09.292Z,11.58
2023-05-15T23:42:36.029Z,11.52
2023-05-15T23:45:03.148Z,11.51
2023-05-15T23:47:29.911Z,11.52
2023-05-15T23:49:56.564Z,11.51
2023-05-15T23:52:23.266Z,11.54
2023-05-15T23:54:50.027Z,11.49
2023-05-15T23:57:17.149Z,11.44
2023-05-15T23:59:43.923Z,11.44
